Terminal Aerodrome Forecast
Issued by NWS Charleston, WV

Home | Current Version | Previous Version | Text Only | Print | Product List | Glossary On
Versions: 1 2 3 4 5 6 7 8 9 10 11 12 13 14 15 16 17 18 19 20 21 22 23 24
000
FTUS41 KRLX 020900 AAA
TAFEKN
TAF AMD
KEKN 020900Z 0209/0306 00000KT P6SM BKN080
     FM021400 23006KT P6SM SCT080
     FM021600 25010KT P6SM SCT045
     FM021800 25010G15KT P6SM VCTS SCT045CB
     FM022200 25010G16KT 6SM TSRA BR BKN045CB
     FM030100 26006KT P6SM VCTS BKN050CB
     FM030300 28003KT 6SM BR BKN080
     FM030400 00000KT 2SM BR SCT001
     FM030500 00000KT 1/4SM FG VV001=

USA.gov is the U.S. government's official web portal to all federal, state and local government web resources and services.